Terminal Aerodrome Forecast
Issued by NWS Duluth, MN

Home | Current Version | Previous Version | Text Only | Print | Product List | Glossary On
Versions: 1 2 3 4 5 6 7 8 9 10 11 12 13 14 15 16 17 18 19 20 21 22
000
FTUS43 KDLH 241432 AAB
TAFDLH
TAF AMD
KDLH 241432Z 2415/2512 33010KT P6SM SCT015
     FM241600 28015G25KT P6SM SCT030
     FM250000 28007KT P6SM SKC=

USA.gov is the U.S. government's official web portal to all federal, state and local government web resources and services.